^^
Saratoga-Weather Station Historical Data
Daily Summary for September 12, 2020 Units:  Metric    English   Both
Daily Weekly Monthly Yearly Custom
  High: Low: Average:
Temperature: 24.4 °C 12.3 °C 18.3 °C
Dew Point: 17.7 °C 11.2 °C 14.6 °C
Humidity: 95% 61% 80%
Wind Speed: 32km/h 0km/h 3.8km/h
Wind Gust: 38.6km/h - -
Wind- - SSW
Pressure: 1008.8 hPa 1002.7 hPa -
Precipitation: 18.0 mm    
Historical Graphs
 
 
Tabular Data for September 12, 2020
Time Temperature Dew Point Pressure Wind Wind Speed Wind Gust Humidity Rainfall Rate (Hourly) solar
00:03 14.6 °C 12.1 °C 1007.1 hPa Calm     85% 0.0 mm 0 W/m2
00:08 14.4 °C 12.1 °C 1007.1 hPa Calm     86% 0.0 mm 0 W/m2
00:13 14.3 °C 12 °C 1007.1 hPa Calm     86% 0.0 mm 0 W/m2
00:18 14.2 °C 12.1 °C 1007.1 hPa Calm   1.6 km/h 87% 0.0 mm 0 W/m2
00:23 14.1 °C 12 °C 1007.1 hPa Calm     87% 0.0 mm 0 W/m2
01:14 13.5 °C 11.9 °C 1007.1 hPa Calm     90% 0.0 mm 0 W/m2
01:29 13.4 °C 12 °C 1007.1 hPa Calm     91% 0.0 mm 0 W/m2
01:39 13.4 °C 12 °C 1007.1 hPa Calm     91% 0.0 mm 0 W/m2
02:04 13.3 °C 11.9 °C 1006.8 hPa Calm     91% 0.0 mm 0 W/m2
02:54 12.9 °C 11.6 °C 1006.4 hPa Calm     92% 0.0 mm 0 W/m2
03:34 13.1 °C 11.8 °C 1005.8 hPa Calm     92% 0.0 mm 0 W/m2
03:49 13.3 °C 12 °C 1005.4 hPa ESE 1.4 km/h 1.6 km/h 92% 0.0 mm 0 W/m2
04:25 12.9 °C 11.6 °C 1005.8 hPa Calm     92% 0.0 mm 0 W/m2
04:35 12.7 °C 11.4 °C 1005.8 hPa Calm     92% 0.0 mm 0 W/m2
04:54 12.3 °C 11.2 °C 1005.8 hPa Calm     93% 0.0 mm 0 W/m2
05:14 12.3 °C 11.4 °C 1005.8 hPa Calm   1.6 km/h 94% 0.0 mm 0 W/m2
05:50 12.6 °C 11.7 °C 1005.4 hPa Calm     94% 0.0 mm 16 W/m2
05:55 12.6 °C 11.5 °C 1005.4 hPa Calm     93% 0.0 mm 18 W/m2
06:00 12.6 °C 11.5 °C 1005.4 hPa Calm     93% 0.0 mm 23 W/m2
06:05 12.6 °C 11.5 °C 1005.4 hPa Calm     93% 0.0 mm 30 W/m2
06:14 12.6 °C 11.7 °C 1005.4 hPa Calm     94% 0.0 mm 49 W/m2
06:20 12.7 °C 11.8 °C 1005.4 hPa Calm   3.2 km/h 94% 0.0 mm 58 W/m2
06:25 12.9 °C 12 °C 1005.4 hPa East 1.4 km/h 4.8 km/h 94% 0.0 mm 67 W/m2
06:36 13.4 °C 12.3 °C 1005.4 hPa Calm   4.8 km/h 93% 0.0 mm 83 W/m2
06:41 13.6 °C 12.5 °C 1005.1 hPa Calm     93% 0.0 mm 83 W/m2
06:47 13.8 °C 12.5 °C 1005.4 hPa East 1.4 km/h 3.2 km/h 92% 0.0 mm 86 W/m2
06:52 13.9 °C 12.6 °C 1005.4 hPa ESE 3.2 km/h 6.4 km/h 92% 0.0 mm 90 W/m2
06:57 14.1 °C 12.7 °C 1005.4 hPa ESE 3.2 km/h 3.2 km/h 91% 0.0 mm 88 W/m2
07:02 14.2 °C 12.8 °C 1005.4 hPa Calm   1.6 km/h 91% 0.0 mm 90 W/m2
07:07 14.3 °C 12.7 °C 1005.4 hPa East 4.7 km/h 4.8 km/h 90% 0.0 mm 84 W/m2
07:12 14.4 °C 12.8 °C 1005.4 hPa Calm   1.6 km/h 90% 0.0 mm 83 W/m2
07:17 14.4 °C 12.8 °C 1005.4 hPa SSE 1.4 km/h 6.4 km/h 90% 0.0 mm 77 W/m2
07:22 14.5 °C 12.7 °C 1005.4 hPa Calm   1.6 km/h 89% 0.0 mm 70 W/m2
07:27 14.6 °C 12.8 °C 1005.4 hPa NNE 1.4 km/h 4.8 km/h 89% 0.0 mm 86 W/m2
07:32 14.6 °C 12.8 °C 1005.4 hPa Calm   1.6 km/h 89% 0.0 mm 128 W/m2
07:37 14.7 °C 12.9 °C 1005.4 hPa East 1.4 km/h 4.8 km/h 89% 0.0 mm 185 W/m2
07:42 14.9 °C 13.1 °C 1005.4 hPa ESE 1.4 km/h 3.2 km/h 89% 0.0 mm 169 W/m2
07:47 15.1 °C 13.1 °C 1005.4 hPa East 3.2 km/h 8 km/h 88% 0.0 mm 151 W/m2
07:52 15.2 °C 13.2 °C 1005.4 hPa ESE 1.4 km/h 8 km/h 88% 0.0 mm 190 W/m2
07:57 15.4 °C 13.4 °C 1005.4 hPa NE 1.4 km/h 3.2 km/h 88% 0.0 mm 265 W/m2
08:02 15.6 °C 13.4 °C 1005.4 hPa Calm   8 km/h 87% 0.0 mm 299 W/m2
08:07 15.8 °C 13.5 °C 1005.1 hPa ENE 4.7 km/h 6.4 km/h 86% 0.0 mm 279 W/m2
08:12 16.1 °C 13.6 °C 1005.1 hPa ENE 1.4 km/h 4.8 km/h 85% 0.0 mm 265 W/m2
08:17 16.2 °C 13.7 °C 1005.1 hPa NE 1.4 km/h 8 km/h 85% 0.0 mm 202 W/m2
08:22 16.2 °C 13.5 °C 1005.1 hPa NNE 1.4 km/h 1.6 km/h 84% 0.0 mm 258 W/m2
08:27 16.2 °C 13.5 °C 1005.1 hPa NE 1.4 km/h 8 km/h 84% 0.0 mm 257 W/m2
08:32 16.3 °C 13.6 °C 1005.1 hPa North 1.4 km/h 3.2 km/h 84% 0.0 mm 269 W/m2
08:37 16.4 °C 13.7 °C 1005.1 hPa NE 6.4 km/h 8 km/h 84% 0.0 mm 287 W/m2
08:42 16.6 °C 13.7 °C 1005.1 hPa ENE 1.4 km/h 1.6 km/h 83% 0.0 mm 287 W/m2
08:47 16.8 °C 13.9 °C 1005.1 hPa North 3.2 km/h 8 km/h 83% 0.0 mm 332 W/m2
08:52 17.1 °C 14.2 °C 1005.1 hPa East 3.2 km/h 3.2 km/h 83% 0.0 mm 411 W/m2
08:57 17.4 °C 14.3 °C 1005.1 hPa Calm   1.6 km/h 82% 0.0 mm 459 W/m2
09:02 17.8 °C 14.5 °C 1004.7 hPa ENE 1.4 km/h 4.8 km/h 81% 0.0 mm 504 W/m2
09:07 18.2 °C 14.7 °C 1004.7 hPa East 1.4 km/h 6.4 km/h 80% 0.0 mm 448 W/m2
09:12 18.4 °C 14.5 °C 1004.7 hPa NE 1.4 km/h 3.2 km/h 78% 0.0 mm 355 W/m2
09:17 18.4 °C 14.1 °C 1004.7 hPa North 1.4 km/h 3.2 km/h 76% 0.0 mm 318 W/m2
09:22 18.4 °C 14.5 °C 1004.7 hPa East 4.7 km/h 4.8 km/h 78% 0.0 mm 308 W/m2
09:27 18.6 °C 14.5 °C 1004.7 hPa ENE 4.7 km/h 6.4 km/h 77% 0.0 mm 417 W/m2
09:32 18.8 °C 14.7 °C 1004.7 hPa SE 6.4 km/h 9.7 km/h 77% 0.0 mm 408 W/m2
09:37 18.9 °C 14.8 °C 1004.7 hPa ESE 1.4 km/h 8 km/h 77% 0.0 mm 348 W/m2
09:42 19 °C 14.7 °C 1004.7 hPa ESE 1.4 km/h 6.4 km/h 76% 0.0 mm 315 W/m2
09:47 19.1 °C 14.8 °C 1004.7 hPa Calm   8 km/h 76% 0.0 mm 234 W/m2
09:52 19.1 °C 14.6 °C 1004.7 hPa South 3.2 km/h 11.3 km/h 75% 0.0 mm 160 W/m2
09:57 18.9 °C 14.6 °C 1004.7 hPa ESE 1.4 km/h 1.6 km/h 76% 0.0 mm 142 W/m2
10:02 18.9 °C 14.8 °C 1004.7 hPa Calm   9.7 km/h 77% 0.0 mm 127 W/m2
10:07 18.8 °C 14.5 °C 1004.7 hPa East 3.2 km/h 4.8 km/h 76% 0.0 mm 127 W/m2
10:12 18.8 °C 14.7 °C 1004.7 hPa ESE 4.7 km/h 8 km/h 77% 0.0 mm 160 W/m2
10:17 18.8 °C 14.7 °C 1004.7 hPa ESE 1.4 km/h 6.4 km/h 77% 0.0 mm 181 W/m2
10:22 18.8 °C 14.7 °C 1004.7 hPa Calm     77% 0.0 mm 193 W/m2
10:27 19 °C 15.1 °C 1004.7 hPa ESE 6.4 km/h 9.7 km/h 78% 0.0 mm 200 W/m2
10:32 19.1 °C 14.8 °C 1004.7 hPa Calm   6.4 km/h 76% 0.0 mm 211 W/m2
10:37 19.2 °C 14.9 °C 1004.7 hPa Calm   9.7 km/h 76% 0.0 mm 260 W/m2
10:42 19.3 °C 15 °C 1005.1 hPa SSE 1.4 km/h 3.2 km/h 76% 0.0 mm 207 W/m2
10:47 19.4 °C 14.9 °C 1005.1 hPa NE 4.7 km/h 4.8 km/h 75% 0.0 mm 192 W/m2
10:52 19.5 °C 14.9 °C 1004.7 hPa NNE 4.7 km/h 4.8 km/h 75% 0.0 mm 171 W/m2
10:57 19.6 °C 15 °C 1004.7 hPa North 3.2 km/h 4.8 km/h 75% 0.0 mm 190 W/m2
11:02 19.6 °C 15 °C 1004.7 hPa NE 1.4 km/h 3.2 km/h 75% 0.0 mm 304 W/m2
11:07 19.8 °C 15 °C 1005.1 hPa NE 4.7 km/h 6.4 km/h 74% 0.0 mm 373 W/m2
11:12 20.1 °C 15.1 °C 1004.7 hPa NW 1.4 km/h 3.2 km/h 73% 0.0 mm 341 W/m2
11:17 20.3 °C 15.3 °C 1004.7 hPa Calm   6.4 km/h 73% 0.0 mm 364 W/m2
11:22 20.5 °C 15.3 °C 1005.1 hPa SE 1.4 km/h 3.2 km/h 72% 0.0 mm 473 W/m2
11:27 20.7 °C 15.5 °C 1005.1 hPa SW 1.4 km/h 1.6 km/h 72% 0.0 mm 380 W/m2
11:32 20.8 °C 15.6 °C 1005.1 hPa Calm   6.4 km/h 72% 0.0 mm 323 W/m2
11:37 20.8 °C 15.6 °C 1005.1 hPa Calm   3.2 km/h 72% 0.0 mm 397 W/m2
11:42 21.1 °C 15.9 °C 1005.1 hPa East 3.2 km/h 6.4 km/h 72% 0.0 mm 436 W/m2
11:47 21.1 °C 15.4 °C 1004.7 hPa West 1.4 km/h 3.2 km/h 70% 0.0 mm 432 W/m2
11:52 21 °C 15.5 °C 1004.7 hPa East 3.2 km/h 6.4 km/h 71% 0.0 mm 420 W/m2
11:57 21.1 °C 15.6 °C 1004.7 hPa ESE 1.4 km/h 3.2 km/h 71% 0.0 mm 461 W/m2
12:02 21.2 °C 15.7 °C 1004.7 hPa West 3.2 km/h 4.8 km/h 71% 0.0 mm 457 W/m2
12:07 21.3 °C 15.6 °C 1004.7 hPa NNE 1.4 km/h 4.8 km/h 70% 0.0 mm 524 W/m2
12:12 21.4 °C 15.7 °C 1004.7 hPa SE 1.4 km/h 1.6 km/h 70% 0.0 mm 504 W/m2
12:17 21.6 °C 15.4 °C 1004.4 hPa ENE 3.2 km/h 4.8 km/h 68% 0.0 mm 436 W/m2
12:22 21.6 °C 15.2 °C 1004.4 hPa SSE 3.2 km/h 4.8 km/h 67% 0.0 mm 338 W/m2
12:27 21.7 °C 15.5 °C 1004.4 hPa SE 1.4 km/h 4.8 km/h 68% 0.0 mm 250 W/m2
12:32 21.6 °C 15.7 °C 1004.1 hPa Calm   3.2 km/h 69% 0.0 mm 218 W/m2
12:37 21.5 °C 15.3 °C 1004.1 hPa NE 3.2 km/h 3.2 km/h 68% 0.0 mm 188 W/m2
12:42 21.4 °C 15.2 °C 1004.1 hPa NNW 1.4 km/h 6.4 km/h 68% 0.0 mm 181 W/m2
12:47 21.4 °C 15.2 °C 1004.1 hPa East 3.2 km/h 3.2 km/h 68% 0.0 mm 188 W/m2
12:53 21.3 °C 15.4 °C 1004.1 hPa NNW 1.4 km/h 4.8 km/h 69% 0.0 mm 236 W/m2
12:58 21.4 °C 16.1 °C 1004.1 hPa Calm   4.8 km/h 72% 0.0 mm 250 W/m2
13:03 21.4 °C 15.7 °C 1004.1 hPa ENE 1.4 km/h 3.2 km/h 70% 0.0 mm 209 W/m2
13:08 21.6 °C 15.7 °C 1004.1 hPa Calm   3.2 km/h 69% 0.0 mm 202 W/m2
13:13 21.7 °C 15.8 °C 1004.1 hPa ENE 1.4 km/h 6.4 km/h 69% 0.0 mm 223 W/m2
13:18 21.7 °C 15.8 °C 1004.1 hPa East 1.4 km/h 4.8 km/h 69% 0.0 mm 269 W/m2
13:23 21.8 °C 15.9 °C 1004.1 hPa Calm   6.4 km/h 69% 0.0 mm 355 W/m2
13:28 22.1 °C 16.1 °C 1004.1 hPa West 1.4 km/h 3.2 km/h 69% 0.0 mm 425 W/m2
13:33 22.3 °C 15.9 °C 1004.1 hPa WNW 1.4 km/h 4.8 km/h 67% 0.0 mm 552 W/m2
13:38 22.6 °C 16.2 °C 1004.1 hPa WNW 1.4 km/h 4.8 km/h 67% 0.0 mm 624 W/m2
13:43 22.8 °C 15.9 °C 1003.7 hPa NE 1.4 km/h 4.8 km/h 65% 0.0 mm 299 W/m2
13:48 22.9 °C 16.2 °C 1003.7 hPa ESE 1.4 km/h 3.2 km/h 66% 0.0 mm 357 W/m2
13:53 22.9 °C 15.7 °C 1003.7 hPa East 1.4 km/h 3.2 km/h 64% 0.0 mm 369 W/m2
13:58 23.1 °C 15.9 °C 1003.7 hPa WNW 3.2 km/h 4.8 km/h 64% 0.0 mm 334 W/m2
14:03 23 °C 15.6 °C 1003.7 hPa East 1.4 km/h 3.2 km/h 63% 0.0 mm 348 W/m2
14:08 23.2 °C 16.3 °C 1003.7 hPa Calm   3.2 km/h 65% 0.0 mm 499 W/m2
14:14 23.3 °C 15.9 °C 1003.7 hPa ENE 3.2 km/h 3.2 km/h 63% 0.0 mm 392 W/m2
14:19 23.3 °C 15.6 °C 1003.7 hPa East 3.2 km/h 4.8 km/h 62% 0.0 mm 441 W/m2
14:24 23.4 °C 16.2 °C 1003.7 hPa West 3.2 km/h 3.2 km/h 64% 0.0 mm 522 W/m2
14:29 23.6 °C 16.1 °C 1003.7 hPa ESE 3.2 km/h 3.2 km/h 63% 0.0 mm 394 W/m2
14:34 23.7 °C 16 °C 1003.7 hPa NE 1.4 km/h 3.2 km/h 62% 0.0 mm 316 W/m2
14:39 23.7 °C 15.7 °C 1003.4 hPa WNW 1.4 km/h 4.8 km/h 61% 0.0 mm 327 W/m2
14:44 23.6 °C 15.9 °C 1003.4 hPa North 3.2 km/h 8 km/h 62% 0.0 mm 392 W/m2
14:49 23.5 °C 16 °C 1003.0 hPa Calm   3.2 km/h 63% 0.0 mm 366 W/m2
14:54 23.6 °C 16.4 °C 1003.0 hPa West 4.7 km/h 6.4 km/h 64% 0.0 mm 434 W/m2
14:59 23.7 °C 16.5 °C 1002.7 hPa North 6.4 km/h 9.7 km/h 64% 0.0 mm 603 W/m2
15:04 23.9 °C 16.2 °C 1002.7 hPa North 1.4 km/h 4.8 km/h 62% 0.0 mm 527 W/m2
15:09 24.1 °C 16.4 °C 1003.0 hPa ESE 4.7 km/h 6.4 km/h 62% 0.0 mm 308 W/m2
15:14 24 °C 16.3 °C 1003.0 hPa NW 1.4 km/h 4.8 km/h 62% 0.0 mm 330 W/m2
15:19 24.1 °C 16.6 °C 1003.0 hPa WNW 3.2 km/h 4.8 km/h 63% 0.0 mm 696 W/m2
15:24 24.1 °C 16.6 °C 1002.7 hPa NW 1.4 km/h 4.8 km/h 63% 0.0 mm 487 W/m2
15:29 24.2 °C 16.5 °C 1003.0 hPa West 3.2 km/h 8 km/h 62% 0.0 mm 594 W/m2
15:34 24.3 °C 16.8 °C 1003.0 hPa East 4.7 km/h 4.8 km/h 63% 0.0 mm 378 W/m2
15:39 24.4 °C 16.6 °C 1003.0 hPa Calm   4.8 km/h 62% 0.0 mm 353 W/m2
15:44 24.4 °C 16.6 °C 1002.7 hPa WNW 7.9 km/h 8 km/h 62% 0.0 mm 334 W/m2
15:49 24.3 °C 16.6 °C 1003.0 hPa NW 1.4 km/h 4.8 km/h 62% 0.0 mm 392 W/m2
15:54 24.3 °C 16.6 °C 1003.0 hPa NNW 1.4 km/h 4.8 km/h 62% 0.0 mm 302 W/m2
15:59 24.4 °C 16.6 °C 1003.0 hPa West 6.4 km/h 8 km/h 62% 0.0 mm 220 W/m2
16:04 24.3 °C 17.1 °C 1003.0 hPa West 4.7 km/h 6.4 km/h 64% 0.0 mm 285 W/m2
16:09 24.3 °C 16.8 °C 1003.0 hPa WSW 4.7 km/h 6.4 km/h 63% 0.0 mm 248 W/m2
16:14 24.2 °C 17 °C 1003.0 hPa WSW 6.4 km/h 8 km/h 64% 0.0 mm 213 W/m2
16:19 24.1 °C 16.6 °C 1003.0 hPa WSW 11.1 km/h 11.3 km/h 63% 0.0 mm 216 W/m2
16:24 24.1 °C 16.4 °C 1003.0 hPa WSW 4.7 km/h 6.4 km/h 62% 0.0 mm 183 W/m2
16:29 24.1 °C 16.6 °C 1003.0 hPa West 4.7 km/h 8 km/h 63% 0.0 mm 153 W/m2
16:34 23.9 °C 16.9 °C 1003.0 hPa WNW 4.7 km/h 6.4 km/h 65% 0.0 mm 149 W/m2
16:39 23.8 °C 16.8 °C 1003.0 hPa West 4.7 km/h 8 km/h 65% 0.0 mm 192 W/m2
16:45 23.7 °C 17 °C 1003.0 hPa WNW 7.9 km/h 12.9 km/h 66% 0.0 mm 190 W/m2
16:50 23.5 °C 16.8 °C 1003.0 hPa WNW 7.9 km/h 14.5 km/h 66% 0.0 mm 185 W/m2
16:55 23.2 °C 17 °C 1003.0 hPa WNW 9.7 km/h 19.3 km/h 68% 0.0 mm 193 W/m2
17:00 22.9 °C 17.4 °C 1003.4 hPa West 9.7 km/h 16.1 km/h 71% 0.0 mm 271 W/m2
17:05 22.4 °C 17.3 °C 1003.4 hPa West 13 km/h 22.5 km/h 73% 0.0 mm 376 W/m2
17:10 22.2 °C 17.6 °C 1003.0 hPa NW 6.4 km/h 12.9 km/h 75% 0.0 mm 338 W/m2
17:15 22.1 °C 17.5 °C 1003.0 hPa WSW 16.3 km/h 17.7 km/h 75% 0.0 mm 272 W/m2
17:20 21.9 °C 17.1 °C 1003.0 hPa WNW 13 km/h 19.3 km/h 74% 0.0 mm 265 W/m2
17:25 21.9 °C 17.3 °C 1003.0 hPa West 13 km/h 24.1 km/h 75% 0.0 mm 274 W/m2
17:30 21.9 °C 17.3 °C 1003.0 hPa West 4.7 km/h 17.7 km/h 75% 0.0 mm 262 W/m2
17:35 22.1 °C 17.7 °C 1003.0 hPa WNW 4.7 km/h 20.9 km/h 76% 0.0 mm 399 W/m2
17:40 22.2 °C 17.6 °C 1003.0 hPa West 14.3 km/h 16.1 km/h 75% 0.0 mm 288 W/m2
17:45 22.3 °C 17.2 °C 1003.0 hPa West 13 km/h 20.9 km/h 73% 0.0 mm 492 W/m2
17:50 22.5 °C 17.4 °C 1003.0 hPa WNW 17.7 km/h 20.9 km/h 73% 0.0 mm 622 W/m2
17:55 22.6 °C 17.3 °C 1003.0 hPa WNW 13 km/h 19.3 km/h 72% 0.0 mm 745 W/m2
18:00 22.6 °C 17.1 °C 1003.0 hPa West 9.7 km/h 19.3 km/h 71% 0.0 mm 306 W/m2
18:05 22.3 °C 17 °C 1003.4 hPa SW 19.5 km/h 19.3 km/h 72% 0.0 mm 237 W/m2
18:10 21.9 °C 16.8 °C 1003.4 hPa West 16.3 km/h 24.1 km/h 73% 0.0 mm 204 W/m2
18:15 21.5 °C 16.2 °C 1003.4 hPa West 9.7 km/h 24.1 km/h 72% 0.0 mm 186 W/m2
18:20 21.2 °C 15.7 °C 1003.4 hPa WSW 14.3 km/h 17.7 km/h 71% 0.0 mm 137 W/m2
18:25 20.8 °C 15.6 °C 1003.4 hPa West 11.1 km/h 24.1 km/h 72% 0.0 mm 116 W/m2
18:30 20.6 °C 15.8 °C 1003.0 hPa SW 14.3 km/h 16.1 km/h 74% 0.0 mm 53 W/m2
18:35 20.3 °C 15.5 °C 1003.4 hPa WSW 7.9 km/h 20.9 km/h 74% 0.0 mm 23 W/m2
18:41 20.1 °C 15.3 °C 1003.7 hPa WNW 11.1 km/h 24.1 km/h 74% 0.0 mm 11 W/m2
18:46 19.8 °C 14.6 °C 1004.7 hPa West 11.1 km/h 24.1 km/h 72% 0.0 mm 5 W/m2
18:51 19.6 °C 14.6 °C 1005.1 hPa WNW 20.9 km/h 20.9 km/h 73% 0.0 mm 0 W/m2
18:56 18.6 °C 14.7 °C 1005.1 hPa WSW 32 km/h 32.2 km/h 78% 3.3 mm 0 W/m2
19:01 17.1 °C 14.6 °C 1005.4 hPa WNW 11.1 km/h 22.5 km/h 85% 6.6 mm 5 W/m2
19:06 16.3 °C 14.3 °C 1003.7 hPa WNW 13 km/h 38.6 km/h 88% 9.9 mm 23 W/m2
19:11 15.9 °C 14.3 °C 1003.7 hPa WSW 17.7 km/h 19.3 km/h 90% 9.9 mm 39 W/m2
19:16 15.6 °C 14 °C 1004.1 hPa WNW 9.7 km/h 22.5 km/h 90% 10.2 mm 42 W/m2
19:21 15.5 °C 14 °C 1004.1 hPa West 13 km/h 19.3 km/h 91% 10.2 mm 44 W/m2
19:26 15.4 °C 14.1 °C 1004.4 hPa West 6.4 km/h 20.9 km/h 92% 10.2 mm 53 W/m2
19:31 15.5 °C 14.2 °C 1004.4 hPa NW 6.4 km/h 14.5 km/h 92% 10.2 mm 98 W/m2
19:36 15.7 °C 14.4 °C 1004.4 hPa WSW 11.1 km/h 17.7 km/h 92% 10.2 mm 81 W/m2
19:41 15.7 °C 14.4 °C 1004.4 hPa NNW 6.4 km/h 16.1 km/h 92% 10.2 mm 76 W/m2
19:46 15.6 °C 14.3 °C 1004.4 hPa West 6.4 km/h 9.7 km/h 92% 10.2 mm 70 W/m2
19:51 15.6 °C 14.3 °C 1004.4 hPa WNW 7.9 km/h 14.5 km/h 92% 10.2 mm 63 W/m2
19:56 15.6 °C 14.3 °C 1004.1 hPa West 9.7 km/h 14.5 km/h 92% 6.1 mm 53 W/m2
20:01 15.6 °C 14.3 °C 1004.4 hPa WSW 11.1 km/h 11.3 km/h 92% 3.3 mm 30 W/m2
20:06 15.6 °C 14.1 °C 1004.4 hPa WNW 4.7 km/h 9.7 km/h 91% 0.2 mm 42 W/m2
20:11 15.6 °C 14.1 °C 1004.7 hPa West 6.4 km/h 12.9 km/h 91% 0.2 mm 42 W/m2
20:16 15.6 °C 14.1 °C 1005.1 hPa SW 1.4 km/h 3.2 km/h 91% 0.0 mm 25 W/m2
20:21 15.6 °C 14.1 °C 1005.8 hPa Calm   9.7 km/h 91% 0.0 mm 14 W/m2
20:26 15.5 °C 14 °C 1005.8 hPa WSW 7.9 km/h 9.7 km/h 91% 0.0 mm 12 W/m2
20:31 15.5 °C 14.2 °C 1005.1 hPa WNW 7.9 km/h 12.9 km/h 92% 0.0 mm 18 W/m2
20:36 15.5 °C 14.2 °C 1004.7 hPa West 13 km/h 12.9 km/h 92% 0.0 mm 19 W/m2
20:41 15.4 °C 14.1 °C 1004.4 hPa NW 1.4 km/h 8 km/h 92% 0.0 mm 14 W/m2
20:46 15.4 °C 14.1 °C 1004.4 hPa WSW 3.2 km/h 9.7 km/h 92% 0.0 mm 12 W/m2
20:52 15.3 °C 14 °C 1004.7 hPa WSW 1.4 km/h 1.6 km/h 92% 0.0 mm 9 W/m2
20:57 15.2 °C 13.9 °C 1004.7 hPa WSW 4.7 km/h 6.4 km/h 92% 0.0 mm 5 W/m2
21:02 15.2 °C 14.1 °C 1004.7 hPa West 4.7 km/h 6.4 km/h 93% 0.0 mm 0 W/m2
21:07 15.1 °C 14 °C 1005.4 hPa West 3.2 km/h 6.4 km/h 93% 0.0 mm 0 W/m2
21:12 15.1 °C 13.8 °C 1005.8 hPa West 6.4 km/h 14.5 km/h 92% 0.0 mm 0 W/m2
21:17 15.2 °C 13.9 °C 1005.8 hPa WNW 3.2 km/h 4.8 km/h 92% 0.0 mm 0 W/m2
21:22 15.1 °C 13.8 °C 1005.8 hPa WSW 1.4 km/h 11.3 km/h 92% 0.0 mm 0 W/m2
21:27 15.1 °C 13.8 °C 1005.4 hPa NNW 1.4 km/h 3.2 km/h 92% 0.0 mm 0 W/m2
21:32 15.2 °C 13.9 °C 1005.4 hPa Calm   1.6 km/h 92% 0.0 mm 0 W/m2
21:37 15.2 °C 13.9 °C 1005.4 hPa WNW 4.7 km/h 6.4 km/h 92% 0.0 mm 0 W/m2
21:42 15.1 °C 14 °C 1005.4 hPa Calm   3.2 km/h 93% 0.0 mm 0 W/m2
21:47 15.1 °C 14 °C 1005.8 hPa Calm   6.4 km/h 93% 0.0 mm 0 W/m2
21:52 14.9 °C 13.8 °C 1005.4 hPa Calm     93% 0.0 mm 0 W/m2
21:57 14.9 °C 13.8 °C 1005.8 hPa Calm     93% 0.0 mm 0 W/m2
22:02 14.8 °C 13.8 °C 1005.8 hPa SSW 1.4 km/h 3.2 km/h 94% 0.0 mm 0 W/m2
22:07 14.8 °C 13.8 °C 1006.1 hPa Calm     94% 0.0 mm 0 W/m2
22:12 14.8 °C 13.8 °C 1005.8 hPa SW 3.2 km/h 3.2 km/h 94% 0.0 mm 0 W/m2
22:17 14.7 °C 13.7 °C 1005.8 hPa West 3.2 km/h 6.4 km/h 94% 0.0 mm 0 W/m2
22:22 14.6 °C 13.6 °C 1006.1 hPa Calm     94% 0.0 mm 0 W/m2
22:27 14.6 °C 13.6 °C 1006.4 hPa Calm     94% 0.0 mm 0 W/m2
22:32 14.6 °C 13.8 °C 1006.4 hPa Calm     95% 0.0 mm 0 W/m2
22:37 14.6 °C 13.8 °C 1006.8 hPa WSW 1.4 km/h 3.2 km/h 95% 0.0 mm 0 W/m2
22:42 14.7 °C 13.9 °C 1007.1 hPa ESE 1.4 km/h 3.2 km/h 95% 0.2 mm 0 W/m2
22:47 14.7 °C 13.9 °C 1008.1 hPa Calm     95% 0.2 mm 0 W/m2
22:52 14.7 °C 13.9 °C 1008.5 hPa North 3.2 km/h 4.8 km/h 95% 0.5 mm 0 W/m2
22:57 14.7 °C 13.9 °C 1008.1 hPa North 4.7 km/h 4.8 km/h 95% 1.5 mm 0 W/m2
23:02 14.7 °C 13.9 °C 1007.8 hPa NNE 1.4 km/h 6.4 km/h 95% 2.3 mm 0 W/m2
23:07 14.8 °C 13.8 °C 1007.8 hPa West 1.4 km/h 3.2 km/h 94% 3.3 mm 0 W/m2
23:12 14.8 °C 13.8 °C 1007.8 hPa West 3.2 km/h 4.8 km/h 94% 4.3 mm 0 W/m2
23:17 14.7 °C 13.7 °C 1007.8 hPa Calm   3.2 km/h 94% 4.8 mm 0 W/m2
23:22 14.7 °C 13.9 °C 1008.1 hPa SW 3.2 km/h 4.8 km/h 95% 5.1 mm 0 W/m2
23:27 14.6 °C 13.8 °C 1007.8 hPa West 3.2 km/h 4.8 km/h 95% 5.6 mm 0 W/m2
23:32 14.6 °C 13.8 °C 1007.5 hPa West 4.7 km/h 4.8 km/h 95% 5.8 mm 0 W/m2
23:37 14.4 °C 13.6 °C 1007.8 hPa WNW 1.4 km/h 3.2 km/h 95% 6.1 mm 0 W/m2
23:42 14.4 °C 13.6 °C 1008.1 hPa ESE 3.2 km/h 4.8 km/h 95% 6.1 mm 0 W/m2
23:47 14.5 °C 13.7 °C 1008.8 hPa ESE 3.2 km/h 4.8 km/h 95% 6.9 mm 0 W/m2
23:52 14.5 °C 13.7 °C 1008.8 hPa NNE 1.4 km/h 3.2 km/h 95% 7.1 mm 0 W/m2
23:57 14.5 °C 13.7 °C 1008.1 hPa West 4.7 km/h 4.8 km/h 95% 6.1 mm 0 W/m2
Juneau County Weather
Compliments of Weather Underground - 4 mb